createdAt,value
2022-12-09T00:00:22.573Z,26.90
2022-12-09T00:02:50.530Z,29.02
2022-12-09T00:05:18.595Z,28.05
2022-12-09T00:07:46.992Z,26.90
2022-12-09T00:10:16.987Z,27.45
2022-12-09T00:12:46.317Z,26.33
2022-12-09T00:15:14.058Z,25.98
2022-12-09T00:17:41.825Z,24.75
2022-12-09T00:20:10.874Z,25.30
2022-12-09T00:22:38.900Z,26.70
2022-12-09T00:25:07.450Z,25.08
2022-12-09T00:27:35.232Z,24.58
2022-12-09T00:30:05.758Z,24.30
2022-12-09T00:32:33.989Z,23.83
2022-12-09T00:35:01.957Z,24.67
2022-12-09T00:37:29.735Z,24.35
2022-12-09T00:39:57.395Z,23.52
2022-12-09T00:42:25.248Z,23.92
2022-12-09T00:44:52.951Z,23.65
2022-12-09T00:47:22.190Z,24.50
2022-12-09T00:49:50.261Z,24.33
2022-12-09T00:52:17.951Z,24.40
2022-12-09T00:54:45.731Z,24.38
2022-12-09T00:57:13.620Z,24.65
2022-12-09T00:59:41.357Z,24.80
2022-12-09T01:02:09.195Z,23.77
2022-12-09T01:04:38.443Z,24.13
2022-12-09T01:07:06.289Z,25.40
2022-12-09T01:09:34.909Z,25.70
2022-12-09T01:12:03.884Z,23.38
2022-12-09T01:14:31.598Z,23.77
2022-12-09T01:16:59.511Z,24.08
2022-12-09T01:19:27.435Z,22.50
2022-12-09T01:21:56.572Z,23.52
2022-12-09T01:24:24.479Z,23.77
2022-12-09T01:26:52.432Z,23.30
2022-12-09T01:29:23.300Z,22.17
2022-12-09T01:31:51.091Z,22.25
2022-12-09T01:34:18.807Z,25.00
2022-12-09T01:36:47.845Z,24.08
2022-12-09T01:39:17.817Z,22.98
2022-12-09T01:41:45.864Z,24.00
2022-12-09T01:44:20.778Z,23.75
2022-12-09T01:46:49.396Z,22.40
2022-12-09T01:49:23.373Z,24.30
2022-12-09T01:51:59.240Z,23.58
2022-12-09T01:54:28.646Z,22.15
2022-12-09T01:56:57.387Z,22.08
2022-12-09T01:59:26.584Z,22.70
2022-12-09T02:01:59.241Z,24.77
2022-12-09T02:04:29.895Z,21.75
2022-12-09T02:06:58.668Z,22.67
2022-12-09T02:09:26.556Z,22.33
2022-12-09T02:12:11.363Z,20.77
2022-12-09T02:14:44.089Z,21.30
2022-12-09T02:17:25.185Z,20.90
2022-12-09T02:20:05.335Z,20.63
2022-12-09T02:22:47.025Z,20.38
2022-12-09T02:25:27.755Z,20.80
2022-12-09T02:28:17.929Z,20.02
2022-12-09T02:30:56.119Z,18.48
2022-12-09T02:33:39.184Z,19.90
2022-12-09T02:36:14.206Z,19.40
2022-12-09T02:38:44.469Z,20.88
2022-12-09T02:41:17.766Z,20.77
2022-12-09T02:43:50.296Z,18.25
2022-12-09T02:46:21.856Z,19.20
2022-12-09T02:48:56.754Z,20.00
2022-12-09T02:51:30.912Z,19.42
2022-12-09T02:54:04.022Z,19.40
2022-12-09T02:56:33.099Z,19.63
2022-12-09T02:59:00.933Z,19.52
2022-12-09T03:01:37.827Z,19.35
2022-12-09T03:04:21.962Z,19.45
2022-12-09T03:06:54.326Z,18.73
2022-12-09T03:09:26.600Z,17.50
2022-12-09T03:12:00.715Z,16.38
2022-12-09T03:14:34.129Z,17.67
2022-12-09T03:17:07.123Z,17.58
2022-12-09T03:19:40.370Z,17.92
2022-12-09T03:22:12.903Z,17.92
2022-12-09T03:24:52.144Z,17.95
2022-12-09T03:27:24.162Z,18.75
2022-12-09T03:29:53.208Z,17.23
2022-12-09T03:32:25.470Z,16.67
2022-12-09T03:34:58.028Z,16.00
2022-12-09T03:37:27.876Z,15.38
2022-12-09T03:39:57.942Z,16.83
2022-12-09T03:42:34.971Z,16.02
2022-12-09T03:45:09.363Z,14.32
2022-12-09T03:47:38.151Z,14.87
2022-12-09T03:50:07.942Z,15.93
2022-12-09T03:52:43.961Z,15.02
2022-12-09T03:55:19.392Z,16.10
2022-12-09T04:00:18.382Z,14.68
2022-12-09T04:02:47.024Z,15.43
2022-12-09T04:05:15.022Z,14.50
2022-12-09T04:07:44.974Z,13.80
2022-12-09T04:10:12.991Z,14.35
2022-12-09T04:12:42.234Z,14.82
2022-12-09T04:15:10.971Z,13.93
2022-12-09T04:17:38.838Z,14.15
2022-12-09T04:20:08.165Z,14.15
2022-12-09T04:22:36.343Z,14.98
2022-12-09T04:25:05.921Z,13.82
2022-12-09T04:27:33.819Z,14.18
2022-12-09T04:30:02.306Z,13.00
2022-12-09T04:32:30.521Z,14.75
2022-12-09T04:35:01.598Z,13.93
2022-12-09T04:37:29.531Z,14.00
2022-12-09T04:39:57.405Z,14.48
2022-12-09T04:42:27.148Z,14.30
2022-12-09T04:44:55.042Z,13.77
2022-12-09T04:47:23.035Z,14.40
2022-12-09T04:49:50.907Z,15.25
2022-12-09T04:52:19.196Z,15.23
2022-12-09T04:54:48.833Z,14.25
2022-12-09T04:57:16.586Z,14.55
2022-12-09T04:59:45.906Z,15.02
2022-12-09T05:02:13.719Z,15.73
2022-12-09T05:04:43.001Z,14.52
2022-12-09T05:07:12.549Z,15.50
2022-12-09T05:09:41.042Z,15.18
2022-12-09T05:12:09.419Z,15.90
2022-12-09T05:14:37.397Z,15.40
2022-12-09T05:17:09.507Z,16.35
2022-12-09T05:19:39.459Z,16.05
2022-12-09T05:22:07.467Z,15.90
2022-12-09T05:24:35.864Z,15.25
2022-12-09T05:27:03.854Z,15.52
2022-12-09T05:29:34.614Z,16.30
2022-12-09T05:32:02.419Z,17.25
2022-12-09T05:34:32.272Z,16.48
2022-12-09T05:37:00.727Z,17.05
2022-12-09T05:39:28.699Z,15.75
2022-12-09T05:41:56.529Z,15.70
2022-12-09T05:44:24.433Z,16.17
2022-12-09T05:46:52.276Z,15.05
2022-12-09T05:49:20.502Z,15.60
2022-12-09T05:51:52.678Z,14.43
2022-12-09T05:54:20.882Z,14.93
2022-12-09T05:56:49.150Z,13.90
2022-12-09T05:59:17.052Z,14.98
2022-12-09T06:01:45.149Z,15.00
2022-12-09T06:04:16.217Z,14.65
2022-12-09T06:06:44.678Z,15.40
2022-12-09T06:09:14.690Z,15.77
2022-12-09T06:11:42.561Z,15.00
2022-12-09T06:14:11.596Z,15.02
2022-12-09T06:16:40.604Z,14.93
2022-12-09T06:19:08.803Z,15.73
2022-12-09T06:21:36.989Z,16.98
2022-12-09T06:24:06.808Z,16.40
2022-12-09T06:26:36.260Z,16.30
2022-12-09T06:29:04.303Z,16.58
2022-12-09T06:31:32.539Z,16.60
2022-12-09T06:34:01.360Z,16.52
2022-12-09T06:36:31.506Z,15.65
2022-12-09T06:39:07.577Z,16.30
2022-12-09T06:41:39.323Z,16.27
2022-12-09T06:44:07.443Z,17.23
2022-12-09T06:46:35.384Z,15.35
2022-12-09T06:49:03.853Z,19.58
2022-12-09T06:51:34.499Z,17.92
2022-12-09T06:54:02.438Z,17.73
2022-12-09T06:56:35.296Z,17.15
2022-12-09T06:59:08.716Z,15.38
2022-12-09T07:01:37.839Z,16.40
2022-12-09T07:04:07.418Z,16.75
2022-12-09T07:06:38.321Z,15.90
2022-12-09T07:09:08.915Z,15.52
2022-12-09T07:11:37.573Z,15.07
2022-12-09T07:14:07.478Z,16.23
2022-12-09T07:16:36.217Z,15.98
2022-12-09T07:19:05.305Z,15.80
2022-12-09T07:21:33.845Z,16.60
2022-12-09T07:24:02.950Z,17.02
2022-12-09T07:26:32.581Z,16.90
2022-12-09T07:29:03.085Z,17.42
2022-12-09T07:31:32.950Z,16.20
2022-12-09T07:34:02.182Z,17.65
2022-12-09T07:36:31.674Z,18.52
2022-12-09T07:39:01.570Z,18.17
2022-12-09T07:41:30.368Z,17.73
2022-12-09T07:43:58.555Z,18.67
2022-12-09T07:46:27.635Z,19.00
2022-12-09T07:48:58.632Z,18.05
2022-12-09T07:51:26.963Z,16.73
2022-12-09T07:53:57.957Z,17.42
2022-12-09T07:56:28.397Z,16.83
2022-12-09T07:58:57.421Z,15.95
2022-12-09T08:01:27.820Z,15.07
2022-12-09T08:03:58.679Z,16.00
2022-12-09T08:06:28.711Z,15.50
2022-12-09T08:09:01.870Z,14.93
2022-12-09T08:11:31.887Z,17.00
2022-12-09T08:14:07.172Z,20.17
2022-12-09T08:16:39.139Z,21.77
2022-12-09T08:19:09.120Z,18.67
2022-12-09T08:21:37.692Z,19.80
2022-12-09T08:24:07.788Z,32.38
2022-12-09T08:26:37.594Z,20.45
2022-12-09T08:29:09.834Z,17.15
2022-12-09T08:31:41.730Z,17.02
2022-12-09T08:34:12.195Z,16.65
2022-12-09T08:36:40.804Z,18.30
2022-12-09T08:39:09.229Z,17.88
2022-12-09T08:41:39.452Z,16.77
2022-12-09T08:44:09.694Z,17.27
2022-12-09T08:46:39.930Z,16.27
2022-12-09T08:49:11.346Z,18.23
2022-12-09T08:51:41.401Z,17.92
2022-12-09T08:54:09.288Z,17.45
2022-12-09T08:56:37.526Z,17.65
2022-12-09T08:59:06.088Z,19.73
2022-12-09T09:01:35.807Z,18.33
2022-12-09T09:04:06.614Z,19.90
2022-12-09T09:06:35.321Z,22.38
2022-12-09T09:09:05.821Z,24.80
2022-12-09T09:11:34.541Z,21.15
2022-12-09T09:14:05.044Z,22.95
2022-12-09T09:16:33.207Z,21.75
2022-12-09T09:19:05.855Z,26.10
2022-12-09T09:21:35.618Z,21.95
2022-12-09T09:24:09.827Z,24.30
2022-12-09T09:26:41.567Z,30.45
2022-12-09T09:29:12.565Z,21.20
2022-12-09T09:31:41.002Z,24.48
2022-12-09T09:34:09.479Z,22.25
2022-12-09T09:36:37.879Z,24.50
2022-12-09T09:39:07.668Z,23.67
2022-12-09T09:41:45.487Z,20.65
2022-12-09T09:44:20.588Z,21.45
2022-12-09T09:46:52.733Z,22.42
2022-12-09T09:49:29.863Z,20.58
2022-12-09T09:51:58.593Z,28.83
2022-12-09T09:54:28.158Z,20.42
2022-12-09T09:57:02.272Z,21.08
2022-12-09T09:59:45.377Z,20.55
2022-12-09T10:02:19.986Z,23.15
2022-12-09T10:05:00.020Z,25.20
2022-12-09T10:07:36.657Z,21.20
2022-12-09T10:10:17.925Z,21.80
2022-12-09T10:13:06.101Z,22.60
2022-12-09T10:15:43.065Z,21.92
2022-12-09T10:18:19.097Z,21.67
2022-12-09T10:20:47.804Z,21.83
2022-12-09T10:23:17.466Z,20.95
2022-12-09T10:25:49.991Z,21.33
2022-12-09T10:28:22.296Z,21.13
2022-12-09T10:30:51.791Z,22.25
2022-12-09T10:33:28.689Z,22.88
2022-12-09T10:35:57.595Z,22.05
2022-12-09T10:38:27.503Z,22.60
2022-12-09T10:41:04.441Z,21.25
2022-12-09T10:43:38.693Z,23.08
2022-12-09T10:46:19.481Z,20.92
2022-12-09T10:48:57.592Z,23.08
2022-12-09T10:51:28.976Z,22.58
2022-12-09T10:54:00.865Z,22.90
2022-12-09T10:56:32.693Z,24.05
2022-12-09T10:59:12.719Z,24.63
2022-12-09T11:01:52.200Z,25.92
2022-12-09T11:04:25.217Z,24.27
2022-12-09T11:06:59.748Z,24.33
2022-12-09T11:09:32.637Z,23.15
2022-12-09T11:12:05.581Z,24.92
2022-12-09T11:14:36.709Z,23.35
2022-12-09T11:17:16.719Z,25.58
2022-12-09T11:19:47.207Z,24.35
2022-12-09T11:22:34.511Z,24.77
2022-12-09T11:25:23.726Z,24.25
2022-12-09T11:27:57.100Z,23.45
2022-12-09T11:30:27.036Z,23.23
2022-12-09T11:33:07.217Z,24.65
2022-12-09T11:35:51.928Z,22.95
2022-12-09T11:38:29.923Z,23.85
2022-12-09T11:41:07.785Z,24.05
2022-12-09T11:43:41.215Z,24.55
2022-12-09T11:46:19.847Z,24.50
2022-12-09T11:48:54.131Z,23.65
2022-12-09T11:51:25.297Z,24.10
2022-12-09T11:54:01.749Z,24.33
2022-12-09T11:56:31.752Z,22.85
2022-12-09T11:59:04.255Z,23.27
2022-12-09T12:01:40.499Z,23.75
2022-12-09T12:04:11.971Z,23.50
2022-12-09T12:06:45.395Z,22.30
2022-12-09T12:09:17.969Z,22.40
2022-12-09T12:11:56.518Z,22.80
2022-12-09T12:14:29.273Z,21.92
2022-12-09T12:17:05.742Z,22.95
2022-12-09T12:19:36.330Z,22.25
2022-12-09T12:22:26.173Z,22.85
2022-12-09T12:25:23.865Z,23.55
2022-12-09T12:28:10.768Z,23.70
2022-12-09T12:30:48.372Z,24.50
2022-12-09T12:36:39.313Z,24.83
2022-12-09T12:39:22.115Z,27.10
2022-12-09T12:41:56.963Z,28.15
2022-12-09T12:44:54.667Z,26.67
2022-12-09T12:47:28.434Z,26.10
2022-12-09T12:50:11.541Z,27.58
2022-12-09T12:52:56.020Z,28.17
2022-12-09T12:55:41.887Z,28.13
2022-12-09T12:58:18.053Z,28.00
2022-12-09T13:01:00.481Z,29.23
2022-12-09T13:03:39.868Z,26.90
2022-12-09T13:06:12.309Z,28.50
2022-12-09T13:08:45.316Z,26.58
2022-12-09T13:11:19.793Z,28.23
2022-12-09T13:13:52.442Z,26.08
2022-12-09T13:16:27.480Z,26.98
2022-12-09T13:19:09.170Z,28.05
2022-12-09T13:21:37.411Z,26.77
2022-12-09T13:24:19.725Z,28.38
2022-12-09T13:26:53.781Z,26.65
2022-12-09T13:29:37.160Z,26.77
2022-12-09T13:32:20.124Z,26.33
2022-12-09T13:34:54.515Z,25.73
2022-12-09T13:37:59.670Z,25.13
2022-12-09T13:40:35.299Z,25.33
2022-12-09T13:43:12.793Z,25.50
2022-12-09T13:45:50.928Z,25.25
2022-12-09T13:48:52.806Z,26.00
2022-12-09T13:51:23.819Z,27.00
2022-12-09T13:54:01.023Z,27.90
2022-12-09T13:56:31.986Z,26.55
2022-12-09T13:59:33.453Z,27.55
2022-12-09T14:02:10.341Z,26.95
2022-12-09T14:04:46.749Z,28.63
2022-12-09T14:07:30.276Z,27.88
2022-12-09T14:09:59.228Z,27.67
2022-12-09T14:13:20.100Z,28.27
2022-12-09T14:15:48.924Z,28.13
2022-12-09T14:18:32.849Z,29.95
2022-12-09T14:21:23.060Z,29.45
2022-12-09T14:24:28.221Z,30.45
2022-12-09T14:27:14.816Z,29.38
2022-12-09T14:29:51.085Z,28.90
2022-12-09T14:32:24.947Z,31.45
2022-12-09T14:35:07.137Z,30.55
2022-12-09T14:37:58.883Z,29.20
2022-12-09T14:40:40.113Z,29.55
2022-12-09T14:43:22.969Z,29.33
2022-12-09T14:45:55.645Z,28.77
2022-12-09T14:48:26.027Z,28.40
2022-12-09T14:51:16.734Z,28.65
2022-12-09T14:53:47.765Z,28.33
2022-12-09T14:56:18.654Z,29.30
2022-12-09T14:58:55.518Z,29.33
2022-12-09T15:01:23.246Z,28.45
2022-12-09T15:03:56.909Z,28.13
2022-12-09T15:06:26.961Z,29.38
2022-12-09T15:08:57.841Z,30.65
2022-12-09T15:11:29.237Z,29.75
2022-12-09T15:14:23.760Z,28.73
2022-12-09T15:16:54.247Z,28.92
2022-12-09T15:19:58.708Z,29.75
2022-12-09T15:22:21.632Z,29.50
2022-12-09T15:24:51.136Z,29.40
2022-12-09T15:27:21.191Z,30.35
2022-12-09T15:29:51.253Z,30.00
2022-12-09T15:32:25.178Z,31.38
2022-12-09T15:34:54.264Z,30.63
2022-12-09T15:37:29.398Z,28.88
2022-12-09T15:40:01.784Z,30.15
2022-12-09T15:42:33.073Z,30.25
2022-12-09T15:45:08.018Z,30.35
2022-12-09T15:47:38.939Z,30.55
2022-12-09T15:50:15.185Z,28.10
2022-12-09T15:52:48.766Z,27.98
2022-12-09T15:55:19.566Z,29.75
2022-12-09T15:57:50.240Z,30.33
2022-12-09T16:00:20.264Z,30.20
2022-12-09T16:02:50.656Z,29.90
2022-12-09T16:08:01.495Z,30.10
2022-12-09T16:10:30.785Z,29.52
2022-12-09T16:13:10.420Z,29.60
2022-12-09T16:15:50.040Z,30.30
2022-12-09T16:18:21.054Z,32.05
2022-12-09T16:21:17.373Z,32.13
2022-12-09T16:26:19.924Z,29.45
2022-12-09T16:28:55.456Z,31.70
2022-12-09T16:31:24.804Z,33.33
2022-12-09T16:33:52.977Z,31.38
2022-12-09T16:36:25.081Z,32.58
2022-12-09T16:39:43.370Z,31.65
2022-12-09T16:42:22.582Z,34.83
2022-12-09T16:44:50.488Z,35.42
2022-12-09T16:47:24.161Z,33.20
2022-12-09T16:49:52.024Z,33.17
2022-12-09T16:52:25.107Z,31.67
2022-12-09T16:54:55.873Z,30.55
2022-12-09T16:57:23.638Z,32.15
2022-12-09T16:59:53.423Z,31.75
2022-12-09T17:02:31.803Z,32.35
2022-12-09T17:05:00.520Z,31.05
2022-12-09T17:07:28.299Z,31.50
2022-12-09T17:09:56.037Z,32.30
2022-12-09T17:12:23.787Z,32.20
2022-12-09T17:14:52.457Z,31.63
2022-12-09T17:17:20.260Z,31.48
2022-12-09T17:19:51.842Z,29.55
2022-12-09T17:22:19.628Z,31.25
2022-12-09T17:24:50.489Z,30.35
2022-12-09T17:27:18.227Z,32.58
2022-12-09T17:29:46.575Z,36.80
2022-12-09T17:32:16.368Z,34.78
2022-12-09T17:34:44.135Z,32.97
2022-12-09T17:37:13.205Z,32.13
2022-12-09T17:39:41.019Z,31.35
2022-12-09T17:42:08.836Z,31.48
2022-12-09T17:44:36.558Z,29.17
2022-12-09T17:47:04.329Z,31.42
2022-12-09T17:49:32.075Z,31.80
2022-12-09T17:51:59.944Z,31.95
2022-12-09T17:54:29.664Z,29.95
2022-12-09T17:56:57.372Z,30.80
2022-12-09T17:59:27.078Z,29.98
2022-12-09T18:01:54.926Z,29.55
2022-12-09T18:04:22.739Z,30.30
2022-12-09T18:06:53.427Z,31.40
2022-12-09T18:09:22.659Z,30.92
2022-12-09T18:11:52.494Z,29.92
2022-12-09T18:14:20.660Z,29.92
2022-12-09T18:16:49.225Z,30.88
2022-12-09T18:19:20.221Z,31.02
2022-12-09T18:21:48.136Z,29.85
2022-12-09T18:24:15.822Z,31.10
2022-12-09T18:26:43.647Z,30.38
2022-12-09T18:29:13.521Z,31.33
2022-12-09T18:31:42.207Z,30.92
2022-12-09T18:34:09.947Z,30.48
2022-12-09T18:36:37.794Z,31.02
2022-12-09T18:39:08.794Z,32.28
2022-12-09T18:41:37.099Z,31.05
2022-12-09T18:44:07.741Z,30.25
2022-12-09T18:46:38.943Z,31.42
2022-12-09T18:49:08.539Z,30.52
2022-12-09T18:51:39.898Z,32.45
2022-12-09T18:54:09.072Z,33.03
2022-12-09T18:56:41.285Z,32.75
2022-12-09T18:59:10.089Z,30.17
2022-12-09T19:01:41.517Z,33.38
2022-12-09T19:04:16.174Z,32.75
2022-12-09T19:06:45.729Z,33.87
2022-12-09T19:09:16.243Z,32.60
2022-12-09T19:11:46.029Z,32.97
2022-12-09T19:14:15.099Z,31.38
2022-12-09T19:16:45.185Z,32.80
2022-12-09T19:19:14.824Z,31.52
2022-12-09T19:21:43.142Z,31.73
2022-12-09T19:24:14.246Z,31.88
2022-12-09T19:26:42.970Z,30.98
2022-12-09T19:29:13.478Z,34.28
2022-12-09T19:31:44.175Z,33.38
2022-12-09T19:34:16.279Z,35.75
2022-12-09T19:36:44.957Z,34.83
2022-12-09T19:39:14.059Z,37.20
2022-12-09T19:41:43.108Z,43.88
2022-12-09T19:44:15.331Z,40.45
2022-12-09T19:46:43.974Z,37.35
2022-12-09T19:49:16.080Z,37.08
2022-12-09T19:51:44.608Z,33.75
2022-12-09T19:54:15.472Z,35.42
2022-12-09T19:56:44.387Z,32.33
2022-12-09T19:59:12.584Z,35.22
2022-12-09T20:01:43.489Z,35.00
2022-12-09T20:04:47.008Z,34.88
2022-12-09T20:07:08.084Z,32.97
2022-12-09T20:09:37.385Z,33.38
2022-12-09T20:12:05.773Z,33.25
2022-12-09T20:14:36.011Z,33.90
2022-12-09T20:17:03.899Z,31.25
2022-12-09T20:19:33.228Z,31.15
2022-12-09T20:22:01.041Z,31.27
2022-12-09T20:24:30.343Z,32.60
2022-12-09T20:26:58.098Z,34.03
2022-12-09T20:29:25.841Z,33.90
2022-12-09T20:31:55.695Z,34.85
2022-12-09T20:34:23.585Z,41.35
2022-12-09T20:36:53.192Z,45.60
2022-12-09T20:39:22.040Z,42.13
2022-12-09T20:41:50.474Z,39.00
2022-12-09T20:44:19.996Z,40.10
2022-12-09T20:46:49.614Z,40.08
2022-12-09T20:49:19.756Z,34.00
2022-12-09T20:51:49.192Z,34.75
2022-12-09T20:54:18.378Z,35.03
2022-12-09T20:56:46.125Z,32.97
2022-12-09T20:59:14.000Z,34.17
2022-12-09T21:01:47.023Z,32.50
2022-12-09T21:04:15.424Z,31.27
2022-12-09T21:06:43.849Z,32.90
2022-12-09T21:09:14.891Z,31.77
2022-12-09T21:11:44.318Z,33.75
2022-12-09T21:14:13.283Z,35.67
2022-12-09T21:16:43.179Z,36.20
2022-12-09T21:19:14.209Z,38.28
2022-12-09T21:21:45.255Z,39.78
2022-12-09T21:24:13.919Z,38.25
2022-12-09T21:26:42.454Z,38.53
2022-12-09T21:29:13.210Z,35.22
2022-12-09T21:31:42.472Z,33.80
2022-12-09T21:34:11.785Z,33.10
2022-12-09T21:36:42.483Z,32.35
2022-12-09T21:39:13.072Z,31.33
2022-12-09T21:41:41.569Z,31.65
2022-12-09T21:44:15.162Z,31.10
2022-12-09T21:46:43.520Z,30.73
2022-12-09T21:49:11.920Z,30.35
2022-12-09T21:51:39.826Z,30.30
2022-12-09T21:54:07.721Z,31.15
2022-12-09T21:56:36.930Z,35.40
2022-12-09T21:59:06.588Z,32.78
2022-12-09T22:01:37.703Z,31.58
2022-12-09T22:04:07.120Z,28.98
2022-12-09T22:06:34.944Z,32.15
2022-12-09T22:09:03.383Z,29.73
2022-12-09T22:11:33.297Z,30.02
2022-12-09T22:14:02.083Z,31.67
2022-12-09T22:16:32.001Z,30.08
2022-12-09T22:19:02.189Z,30.90
2022-12-09T22:21:33.652Z,30.38
2022-12-09T22:24:04.443Z,29.30
2022-12-09T22:26:32.543Z,29.58
2022-12-09T22:29:01.442Z,28.83
2022-12-09T22:31:31.178Z,30.02
2022-12-09T22:34:03.034Z,27.95
2022-12-09T22:36:30.998Z,27.30
2022-12-09T22:38:58.777Z,30.00
2022-12-09T22:41:29.733Z,29.33
2022-12-09T22:43:58.267Z,29.92
2022-12-09T22:46:28.554Z,29.73
2022-12-09T22:48:57.504Z,29.27
2022-12-09T22:51:28.915Z,29.50
2022-12-09T22:53:57.866Z,28.67
2022-12-09T22:56:26.578Z,29.80
2022-12-09T23:03:18.150Z,29.10
2022-12-09T23:05:46.009Z,29.15
2022-12-09T23:08:14.367Z,31.77
2022-12-09T23:10:42.858Z,32.28
2022-12-09T23:13:11.140Z,31.38
2022-12-09T23:15:38.879Z,30.77
2022-12-09T23:18:06.704Z,33.08
2022-12-09T23:20:35.851Z,29.80
2022-12-09T23:23:03.560Z,32.13
2022-12-09T23:25:34.074Z,31.77
2022-12-09T23:28:01.814Z,32.30
2022-12-09T23:30:29.472Z,33.53
2022-12-09T23:32:59.691Z,33.13
2022-12-09T23:35:27.354Z,32.97
2022-12-09T23:37:56.379Z,29.70
2022-12-09T23:40:24.047Z,32.85
2022-12-09T23:42:53.936Z,31.77
2022-12-09T23:45:21.804Z,31.17
2022-12-09T23:47:49.480Z,31.77
2022-12-09T23:50:17.306Z,30.75
2022-12-09T23:52:44.983Z,31.52
2022-12-09T23:55:13.997Z,29.88
2022-12-09T23:57:41.671Z,31.15
